sensor_id;sensor_type;location;lat;lon;timestamp;pressure;altitude;pressure_sealevel;temperature;humidity
72226;BME280;60130;52.250;5.048;2023-08-31T00:00:00;1006.9;;;13.3;87.9
72226;BME280;60130;52.250;5.048;2023-08-31T00:05:00;1006.9;;;13.3;87.8
72226;BME280;60130;52.250;5.048;2023-08-31T00:10:00;1007.0;;;13.4;87.8
72226;BME280;60130;52.250;5.048;2023-08-31T00:15:00;1007.0;;;13.4;87.8
72226;BME280;60130;52.250;5.048;2023-08-31T00:20:00;1007.0;;;13.4;87.9
72226;BME280;60130;52.250;5.048;2023-08-31T00:25:00;1007.0;;;13.5;88.1
72226;BME280;60130;52.250;5.048;2023-08-31T00:30:00;1006.8;;;13.4;88.3
72226;BME280;60130;52.250;5.048;2023-08-31T00:35:00;1006.9;;;13.5;88.5
72226;BME280;60130;52.250;5.048;2023-08-31T00:40:00;1006.9;;;13.4;88.3
72226;BME280;60130;52.250;5.048;2023-08-31T00:45:00;1006.9;;;13.3;88.6
72226;BME280;60130;52.250;5.048;2023-08-31T00:50:00;1006.8;;;13.4;88.8
72226;BME280;60130;52.250;5.048;2023-08-31T00:55:02;1006.8;;;13.5;88.1
72226;BME280;60130;52.250;5.048;2023-08-31T01:00:00;1006.8;;;13.5;88.0
72226;BME280;60130;52.250;5.048;2023-08-31T01:05:04;1006.7;;;13.6;87.5
72226;BME280;60130;52.250;5.048;2023-08-31T01:10:06;1007.0;;;13.7;86.5
72226;BME280;60130;52.250;5.048;2023-08-31T01:15:03;1007.1;;;13.9;86.0
72226;BME280;60130;52.250;5.048;2023-08-31T01:20:01;1007.1;;;14.2;85.9
72226;BME280;60130;52.250;5.048;2023-08-31T01:25:00;1007.1;;;14.1;86.0
72226;BME280;60130;52.250;5.048;2023-08-31T01:30:00;1007.1;;;14.1;84.9
72226;BME280;60130;52.250;5.048;2023-08-31T01:35:01;1007.0;;;14.2;85.8
72226;BME280;60130;52.250;5.048;2023-08-31T01:40:02;1007.0;;;14.0;86.2
72226;BME280;60130;52.250;5.048;2023-08-31T01:45:00;1007.0;;;13.8;86.5
72226;BME280;60130;52.250;5.048;2023-08-31T01:50:00;1007.0;;;13.9;86.6
72226;BME280;60130;52.250;5.048;2023-08-31T01:55:00;1007.0;;;13.7;86.3
72226;BME280;60130;52.250;5.048;2023-08-31T02:00:00;1007.0;;;13.7;86.5
72226;BME280;60130;52.250;5.048;2023-08-31T02:05:00;1007.1;;;13.6;86.9
72226;BME280;60130;52.250;5.048;2023-08-31T02:10:00;1007.1;;;13.5;86.2
72226;BME280;60130;52.250;5.048;2023-08-31T02:15:00;1007.2;;;13.5;86.9
72226;BME280;60130;52.250;5.048;2023-08-31T02:20:00;1007.0;;;13.5;87.7
72226;BME280;60130;52.250;5.048;2023-08-31T02:25:00;1007.0;;;13.3;88.0
72226;BME280;60130;52.250;5.048;2023-08-31T02:30:00;1007.0;;;13.2;88.0
72226;BME280;60130;52.250;5.048;2023-08-31T02:35:00;1006.9;;;13.2;88.0
72226;BME280;60130;52.250;5.048;2023-08-31T02:40:00;1006.9;;;13.2;88.0
72226;BME280;60130;52.250;5.048;2023-08-31T02:45:00;1006.9;;;13.1;88.1
72226;BME280;60130;52.250;5.048;2023-08-31T02:50:00;1007.0;;;13.1;88.0
72226;BME280;60130;52.250;5.048;2023-08-31T02:55:00;1007.0;;;13.2;88.2
72226;BME280;60130;52.250;5.048;2023-08-31T03:00:00;1007.0;;;13.2;88.0
72226;BME280;60130;52.250;5.048;2023-08-31T03:05:00;1007.1;;;13.1;87.8
72226;BME280;60130;52.250;5.048;2023-08-31T03:10:00;1007.1;;;13.1;87.5
72226;BME280;60130;52.250;5.048;2023-08-31T03:15:00;1007.2;;;13.0;87.0
72226;BME280;60130;52.250;5.048;2023-08-31T03:20:00;1007.2;;;12.9;87.3
72226;BME280;60130;52.250;5.048;2023-08-31T03:25:00;1007.2;;;12.9;87.5
72226;BME280;60130;52.250;5.048;2023-08-31T03:30:00;1007.1;;;13.0;87.5
72226;BME280;60130;52.250;5.048;2023-08-31T03:35:02;1007.2;;;13.1;87.5
72226;BME280;60130;52.250;5.048;2023-08-31T03:40:00;1007.2;;;13.1;87.7
72226;BME280;60130;52.250;5.048;2023-08-31T03:45:00;1007.2;;;13.1;88.2
72226;BME280;60130;52.250;5.048;2023-08-31T03:50:00;1007.2;;;13.2;88.4
72226;BME280;60130;52.250;5.048;2023-08-31T03:55:00;1007.2;;;13.2;88.1
72226;BME280;60130;52.250;5.048;2023-08-31T04:00:00;1007.2;;;13.2;88.2
72226;BME280;60130;52.250;5.048;2023-08-31T04:05:00;1007.2;;;13.2;88.3
72226;BME280;60130;52.250;5.048;2023-08-31T04:10:00;1007.3;;;13.3;88.4
72226;BME280;60130;52.250;5.048;2023-08-31T04:15:00;1007.3;;;13.3;88.3
72226;BME280;60130;52.250;5.048;2023-08-31T04:20:00;1007.3;;;13.3;88.1
72226;BME280;60130;52.250;5.048;2023-08-31T04:25:00;1007.3;;;13.4;88.2
72226;BME280;60130;52.250;5.048;2023-08-31T04:30:00;1007.4;;;13.4;87.8
72226;BME280;60130;52.250;5.048;2023-08-31T04:35:00;1007.4;;;13.4;87.8
72226;BME280;60130;52.250;5.048;2023-08-31T04:40:00;1007.5;;;13.3;88.3
72226;BME280;60130;52.250;5.048;2023-08-31T04:45:00;1007.6;;;13.3;88.9
72226;BME280;60130;52.250;5.048;2023-08-31T04:50:00;1007.6;;;13.3;89.4
72226;BME280;60130;52.250;5.048;2023-08-31T04:55:00;1007.7;;;13.3;89.6
72226;BME280;60130;52.250;5.048;2023-08-31T05:00:00;1007.7;;;13.3;90.0
72226;BME280;60130;52.250;5.048;2023-08-31T05:05:00;1007.8;;;13.5;89.5
72226;BME280;60130;52.250;5.048;2023-08-31T05:10:00;1007.9;;;13.5;89.3
72226;BME280;60130;52.250;5.048;2023-08-31T05:15:00;1007.9;;;13.5;89.7
72226;BME280;60130;52.250;5.048;2023-08-31T05:20:00;1008.0;;;13.6;89.6
72226;BME280;60130;52.250;5.048;2023-08-31T05:25:00;1008.1;;;13.8;89.6
72226;BME280;60130;52.250;5.048;2023-08-31T05:30:00;1008.0;;;13.9;89.5
72226;BME280;60130;52.250;5.048;2023-08-31T05:35:00;1008.2;;;13.8;89.1
72226;BME280;60130;52.250;5.048;2023-08-31T05:40:00;1008.3;;;13.8;89.3
72226;BME280;60130;52.250;5.048;2023-08-31T05:45:00;1008.3;;;13.6;89.3
72226;BME280;60130;52.250;5.048;2023-08-31T05:50:00;1008.2;;;13.5;88.9
72226;BME280;60130;52.250;5.048;2023-08-31T05:55:00;1008.3;;;13.5;88.7
72226;BME280;60130;52.250;5.048;2023-08-31T06:00:00;1008.2;;;13.6;88.6
72226;BME280;60130;52.250;5.048;2023-08-31T06:05:00;1008.3;;;13.6;88.0
72226;BME280;60130;52.250;5.048;2023-08-31T06:10:00;1008.3;;;13.6;87.6
72226;BME280;60130;52.250;5.048;2023-08-31T06:15:00;1008.4;;;13.7;87.6
72226;BME280;60130;52.250;5.048;2023-08-31T06:20:00;1008.4;;;14.2;87.3
72226;BME280;60130;52.250;5.048;2023-08-31T06:25:00;1008.5;;;15.6;84.4
72226;BME280;60130;52.250;5.048;2023-08-31T06:30:00;1008.5;;;16.4;81.4
72226;BME280;60130;52.250;5.048;2023-08-31T06:35:00;1008.5;;;15.4;83.3
72226;BME280;60130;52.250;5.048;2023-08-31T06:40:00;1008.5;;;15.2;84.8
72226;BME280;60130;52.250;5.048;2023-08-31T06:45:00;1008.5;;;16.7;81.7
72226;BME280;60130;52.250;5.048;2023-08-31T06:50:00;1008.7;;;18.2;76.1
72226;BME280;60130;52.250;5.048;2023-08-31T06:55:00;1008.7;;;18.8;74.9
72226;BME280;60130;52.250;5.048;2023-08-31T07:00:00;1008.6;;;17.4;78.3
72226;BME280;60130;52.250;5.048;2023-08-31T07:05:00;1008.7;;;16.9;79.7
72226;BME280;60130;52.250;5.048;2023-08-31T07:10:00;1008.9;;;18.3;75.9
72226;BME280;60130;52.250;5.048;2023-08-31T07:15:00;1008.9;;;17.8;77.0
72226;BME280;60130;52.250;5.048;2023-08-31T07:20:00;1008.9;;;17.1;79.4
72226;BME280;60130;52.250;5.048;2023-08-31T07:25:00;1008.9;;;16.3;81.6
72226;BME280;60130;52.250;5.048;2023-08-31T07:30:00;1009.0;;;15.9;83.7
72226;BME280;60130;52.250;5.048;2023-08-31T07:35:00;1009.0;;;15.8;84.3
72226;BME280;60130;52.250;5.048;2023-08-31T07:40:00;1009.0;;;15.6;84.0
72226;BME280;60130;52.250;5.048;2023-08-31T07:45:00;1009.0;;;15.6;84.3
72226;BME280;60130;52.250;5.048;2023-08-31T07:50:00;1009.1;;;15.8;84.9
72226;BME280;60130;52.250;5.048;2023-08-31T07:55:00;1009.1;;;16.1;85.6
72226;BME280;60130;52.250;5.048;2023-08-31T08:00:00;1009.2;;;16.2;84.1
72226;BME280;60130;52.250;5.048;2023-08-31T08:05:00;1009.3;;;16.6;83.4
72226;BME280;60130;52.250;5.048;2023-08-31T08:10:00;1009.2;;;16.2;82.5
72226;BME280;60130;52.250;5.048;2023-08-31T08:15:00;1009.3;;;16.2;84.2
72226;BME280;60130;52.250;5.048;2023-08-31T08:20:00;1009.3;;;16.6;84.1
72226;BME280;60130;52.250;5.048;2023-08-31T08:25:00;1009.4;;;16.8;84.0
72226;BME280;60130;52.250;5.048;2023-08-31T08:30:00;1009.3;;;17.1;83.1
72226;BME280;60130;52.250;5.048;2023-08-31T08:35:00;1009.5;;;17.3;82.0
72226;BME280;60130;52.250;5.048;2023-08-31T08:40:01;1009.5;;;17.0;80.7
72226;BME280;60130;52.250;5.048;2023-08-31T08:45:01;1009.4;;;15.7;79.0
72226;BME280;60130;52.250;5.048;2023-08-31T08:50:00;1009.4;;;15.7;80.6
72226;BME280;60130;52.250;5.048;2023-08-31T08:55:01;1009.5;;;15.8;81.2
72226;BME280;60130;52.250;5.048;2023-08-31T09:00:00;1009.5;;;15.9;79.9
72226;BME280;60130;52.250;5.048;2023-08-31T09:05:00;1009.6;;;16.4;80.4
72226;BME280;60130;52.250;5.048;2023-08-31T09:10:00;1009.6;;;17.0;79.1
72226;BME280;60130;52.250;5.048;2023-08-31T09:15:01;1009.6;;;17.5;79.4
72226;BME280;60130;52.250;5.048;2023-08-31T09:20:01;1009.6;;;17.8;76.7
72226;BME280;60130;52.250;5.048;2023-08-31T09:25:00;1009.6;;;18.2;76.1
72226;BME280;60130;52.250;5.048;2023-08-31T09:30:01;1009.6;;;18.6;74.3
72226;BME280;60130;52.250;5.048;2023-08-31T09:35:00;1009.6;;;18.2;73.8
72226;BME280;60130;52.250;5.048;2023-08-31T09:40:02;1009.7;;;18.0;73.5
72226;BME280;60130;52.250;5.048;2023-08-31T09:45:00;1009.7;;;18.3;72.9
72226;BME280;60130;52.250;5.048;2023-08-31T09:50:01;1009.7;;;18.0;72.9
72226;BME280;60130;52.250;5.048;2023-08-31T09:55:01;1009.7;;;18.7;71.2
72226;BME280;60130;52.250;5.048;2023-08-31T10:00:00;1009.7;;;18.8;71.1
72226;BME280;60130;52.250;5.048;2023-08-31T10:05:00;1009.7;;;19.2;68.9
72226;BME280;60130;52.250;5.048;2023-08-31T10:10:00;1009.7;;;18.9;65.9
72226;BME280;60130;52.250;5.048;2023-08-31T10:15:00;1009.8;;;18.1;65.5
72226;BME280;60130;52.250;5.048;2023-08-31T10:20:00;1009.8;;;18.1;67.8
72226;BME280;60130;52.250;5.048;2023-08-31T10:25:01;1009.8;;;18.6;63.2
72226;BME280;60130;52.250;5.048;2023-08-31T10:30:14;1009.8;;;19.4;61.3
72226;BME280;60130;52.250;5.048;2023-08-31T10:35:08;1009.8;;;20.1;58.9
72226;BME280;60130;52.250;5.048;2023-08-31T10:40:08;1009.9;;;20.0;62.0
72226;BME280;60130;52.250;5.048;2023-08-31T10:45:05;1010.0;;;18.5;67.5
72226;BME280;60130;52.250;5.048;2023-08-31T10:50:19;1010.0;;;17.8;71.3
72226;BME280;60130;52.250;5.048;2023-08-31T10:55:04;1010.1;;;17.9;71.4
72226;BME280;60130;52.250;5.048;2023-08-31T11:00:00;1010.1;;;18.6;70.1
72226;BME280;60130;52.250;5.048;2023-08-31T11:05:01;1010.1;;;19.4;69.3
72226;BME280;60130;52.250;5.048;2023-08-31T11:10:09;1010.0;;;20.3;66.0
72226;BME280;60130;52.250;5.048;2023-08-31T11:15:00;1010.0;;;20.0;64.1
72226;BME280;60130;52.250;5.048;2023-08-31T11:20:01;1010.0;;;20.6;64.6
72226;BME280;60130;52.250;5.048;2023-08-31T11:25:00;1009.9;;;20.9;61.9
72226;BME280;60130;52.250;5.048;2023-08-31T11:30:00;1009.9;;;19.9;60.5
72226;BME280;60130;52.250;5.048;2023-08-31T11:35:00;1010.0;;;20.1;60.0
72226;BME280;60130;52.250;5.048;2023-08-31T11:40:00;1009.9;;;20.5;56.1
72226;BME280;60130;52.250;5.048;2023-08-31T11:45:00;1010.0;;;20.7;57.2
72226;BME280;60130;52.250;5.048;2023-08-31T11:50:00;1010.0;;;20.6;55.9
72226;BME280;60130;52.250;5.048;2023-08-31T11:55:00;1010.0;;;20.7;54.8
72226;BME280;60130;52.250;5.048;2023-08-31T12:00:02;1010.0;;;20.3;54.3
72226;BME280;60130;52.250;5.048;2023-08-31T12:05:00;1010.0;;;20.4;52.1
72226;BME280;60130;52.250;5.048;2023-08-31T12:10:02;1010.0;;;20.3;52.8
72226;BME280;60130;52.250;5.048;2023-08-31T12:15:01;1010.0;;;20.6;52.8
72226;BME280;60130;52.250;5.048;2023-08-31T12:20:04;1010.0;;;20.6;51.2
72226;BME280;60130;52.250;5.048;2023-08-31T12:25:00;1010.0;;;20.5;52.1
72226;BME280;60130;52.250;5.048;2023-08-31T12:30:00;1010.0;;;20.8;52.4
72226;BME280;60130;52.250;5.048;2023-08-31T12:35:00;1010.1;;;20.8;54.1
72226;BME280;60130;52.250;5.048;2023-08-31T12:40:00;1010.2;;;20.5;50.1
72226;BME280;60130;52.250;5.048;2023-08-31T12:45:00;1010.2;;;20.7;50.0
72226;BME280;60130;52.250;5.048;2023-08-31T12:50:00;1010.2;;;20.8;52.5
72226;BME280;60130;52.250;5.048;2023-08-31T12:55:00;1010.2;;;21.0;51.3
72226;BME280;60130;52.250;5.048;2023-08-31T13:00:00;1010.2;;;20.9;53.7
72226;BME280;60130;52.250;5.048;2023-08-31T13:05:00;1010.2;;;20.8;52.5
72226;BME280;60130;52.250;5.048;2023-08-31T13:10:01;1010.2;;;20.8;50.3
72226;BME280;60130;52.250;5.048;2023-08-31T13:15:00;1010.3;;;20.9;52.1
72226;BME280;60130;52.250;5.048;2023-08-31T13:20:00;1010.2;;;20.8;52.0
72226;BME280;60130;52.250;5.048;2023-08-31T13:25:00;1010.2;;;20.8;52.5
72226;BME280;60130;52.250;5.048;2023-08-31T13:30:00;1010.2;;;21.1;49.8
72226;BME280;60130;52.250;5.048;2023-08-31T13:35:00;1010.2;;;21.1;51.0
72226;BME280;60130;52.250;5.048;2023-08-31T13:40:00;1010.2;;;21.0;50.1
72226;BME280;60130;52.250;5.048;2023-08-31T13:45:00;1010.3;;;21.0;51.7
72226;BME280;60130;52.250;5.048;2023-08-31T13:50:00;1010.3;;;21.1;51.3
72226;BME280;60130;52.250;5.048;2023-08-31T13:55:00;1010.3;;;21.1;51.0
72226;BME280;60130;52.250;5.048;2023-08-31T14:00:00;1010.3;;;21.2;51.3
72226;BME280;60130;52.250;5.048;2023-08-31T14:05:00;1010.3;;;21.1;49.2
72226;BME280;60130;52.250;5.048;2023-08-31T14:10:00;1010.3;;;21.2;51.0
72226;BME280;60130;52.250;5.048;2023-08-31T14:15:00;1010.3;;;20.8;50.7
72226;BME280;60130;52.250;5.048;2023-08-31T14:20:00;1010.3;;;21.0;51.6
72226;BME280;60130;52.250;5.048;2023-08-31T14:25:00;1010.3;;;20.8;50.1
72226;BME280;60130;52.250;5.048;2023-08-31T14:30:00;1010.3;;;20.9;50.5
72226;BME280;60130;52.250;5.048;2023-08-31T14:35:00;1010.3;;;21.2;51.0
72226;BME280;60130;52.250;5.048;2023-08-31T14:40:00;1010.4;;;21.3;51.2
72226;BME280;60130;52.250;5.048;2023-08-31T14:45:01;1010.4;;;21.5;49.4
72226;BME280;60130;52.250;5.048;2023-08-31T14:50:00;1010.4;;;21.8;49.1
72226;BME280;60130;52.250;5.048;2023-08-31T14:55:00;1010.5;;;21.5;51.0
72226;BME280;60130;52.250;5.048;2023-08-31T15:00:00;1010.5;;;21.2;50.6
72226;BME280;60130;52.250;5.048;2023-08-31T15:05:00;1010.5;;;21.0;51.0
72226;BME280;60130;52.250;5.048;2023-08-31T15:10:00;1010.5;;;20.8;51.8
72226;BME280;60130;52.250;5.048;2023-08-31T15:15:00;1010.6;;;20.9;50.6
72226;BME280;60130;52.250;5.048;2023-08-31T15:20:00;1010.5;;;20.9;50.6
72226;BME280;60130;52.250;5.048;2023-08-31T15:25:00;1010.6;;;20.9;51.1
72226;BME280;60130;52.250;5.048;2023-08-31T15:30:00;1010.6;;;20.9;51.3
72226;BME280;60130;52.250;5.048;2023-08-31T15:35:00;1010.6;;;21.2;52.6
72226;BME280;60130;52.250;5.048;2023-08-31T15:40:00;1010.6;;;21.2;49.6
72226;BME280;60130;52.250;5.048;2023-08-31T15:45:01;1010.6;;;20.8;50.7
72226;BME280;60130;52.250;5.048;2023-08-31T15:50:00;1010.7;;;20.9;50.9
72226;BME280;60130;52.250;5.048;2023-08-31T15:55:03;1010.8;;;21.1;52.1
72226;BME280;60130;52.250;5.048;2023-08-31T16:00:00;1010.7;;;21.1;50.9
72226;BME280;60130;52.250;5.048;2023-08-31T16:05:03;1010.8;;;21.5;51.0
72226;BME280;60130;52.250;5.048;2023-08-31T16:10:00;1010.8;;;21.1;51.3
72226;BME280;60130;52.250;5.048;2023-08-31T16:15:00;1010.8;;;20.7;52.3
72226;BME280;60130;52.250;5.048;2023-08-31T16:20:00;1010.8;;;20.5;51.7
72226;BME280;60130;52.250;5.048;2023-08-31T16:25:00;1010.7;;;20.2;53.2
72226;BME280;60130;52.250;5.048;2023-08-31T16:30:00;1010.8;;;20.1;54.7
72226;BME280;60130;52.250;5.048;2023-08-31T16:35:00;1010.8;;;19.9;54.5
72226;BME280;60130;52.250;5.048;2023-08-31T16:40:00;1010.8;;;19.8;54.9
72226;BME280;60130;52.250;5.048;2023-08-31T16:45:00;1010.8;;;20.0;53.9
72226;BME280;60130;52.250;5.048;2023-08-31T16:50:00;1010.8;;;19.6;54.1
72226;BME280;60130;52.250;5.048;2023-08-31T16:55:00;1010.8;;;19.8;55.0
72226;BME280;60130;52.250;5.048;2023-08-31T17:00:00;1010.7;;;20.0;55.3
72226;BME280;60130;52.250;5.048;2023-08-31T17:05:00;1010.8;;;20.2;55.0
72226;BME280;60130;52.250;5.048;2023-08-31T17:10:00;1010.8;;;20.2;54.5
72226;BME280;60130;52.250;5.048;2023-08-31T17:15:00;1010.7;;;20.2;54.4
72226;BME280;60130;52.250;5.048;2023-08-31T17:20:00;1010.8;;;20.0;53.8
72226;BME280;60130;52.250;5.048;2023-08-31T17:25:00;1010.8;;;20.0;54.3
72226;BME280;60130;52.250;5.048;2023-08-31T17:30:00;1010.8;;;19.8;54.2
72226;BME280;60130;52.250;5.048;2023-08-31T17:35:00;1010.8;;;19.5;55.9
72226;BME280;60130;52.250;5.048;2023-08-31T17:40:00;1010.9;;;19.2;56.7
72226;BME280;60130;52.250;5.048;2023-08-31T17:45:00;1010.9;;;18.9;58.5
72226;BME280;60130;52.250;5.048;2023-08-31T17:50:00;1010.8;;;18.7;58.9
72226;BME280;60130;52.250;5.048;2023-08-31T17:55:00;1010.8;;;18.5;60.3
72226;BME280;60130;52.250;5.048;2023-08-31T18:00:00;1010.8;;;18.3;61.1
72226;BME280;60130;52.250;5.048;2023-08-31T18:05:00;1010.8;;;18.1;62.1
72226;BME280;60130;52.250;5.048;2023-08-31T18:10:00;1010.8;;;18.0;62.8
72226;BME280;60130;52.250;5.048;2023-08-31T18:15:00;1010.8;;;17.9;63.1
72226;BME280;60130;52.250;5.048;2023-08-31T18:20:00;1010.7;;;17.8;64.2
72226;BME280;60130;52.250;5.048;2023-08-31T18:25:00;1010.8;;;17.5;65.3
72226;BME280;60130;52.250;5.048;2023-08-31T18:30:00;1010.8;;;17.2;66.8
72226;BME280;60130;52.250;5.048;2023-08-31T18:35:00;1010.8;;;17.0;67.5
72226;BME280;60130;52.250;5.048;2023-08-31T18:40:00;1010.9;;;16.8;68.1
72226;BME280;60130;52.250;5.048;2023-08-31T18:45:00;1010.9;;;16.8;69.4
72226;BME280;60130;52.250;5.048;2023-08-31T18:50:00;1011.0;;;16.8;70.5
72226;BME280;60130;52.250;5.048;2023-08-31T18:55:00;1011.0;;;16.8;71.2
72226;BME280;60130;52.250;5.048;2023-08-31T19:00:00;1010.9;;;16.5;72.5
72226;BME280;60130;52.250;5.048;2023-08-31T19:05:00;1011.0;;;16.1;73.9
72226;BME280;60130;52.250;5.048;2023-08-31T19:10:00;1011.1;;;15.9;74.4
72226;BME280;60130;52.250;5.048;2023-08-31T19:15:00;1011.1;;;15.8;74.7
72226;BME280;60130;52.250;5.048;2023-08-31T19:20:00;1011.2;;;15.8;74.9
72226;BME280;60130;52.250;5.048;2023-08-31T19:25:00;1011.3;;;15.6;74.8
72226;BME280;60130;52.250;5.048;2023-08-31T19:30:00;1011.3;;;15.7;74.8
72226;BME280;60130;52.250;5.048;2023-08-31T19:35:00;1011.3;;;15.8;74.5
72226;BME280;60130;52.250;5.048;2023-08-31T19:40:00;1011.2;;;15.9;74.5
72226;BME280;60130;52.250;5.048;2023-08-31T19:45:00;1011.2;;;16.0;74.8
72226;BME280;60130;52.250;5.048;2023-08-31T19:50:00;1011.2;;;15.9;74.7
72226;BME280;60130;52.250;5.048;2023-08-31T19:55:00;1011.2;;;15.9;74.4
72226;BME280;60130;52.250;5.048;2023-08-31T20:00:00;1011.3;;;16.0;75.0
72226;BME280;60130;52.250;5.048;2023-08-31T20:05:00;1011.3;;;16.1;74.7
72226;BME280;60130;52.250;5.048;2023-08-31T20:10:00;1011.4;;;16.1;75.1
72226;BME280;60130;52.250;5.048;2023-08-31T20:15:00;1011.4;;;16.1;75.4
72226;BME280;60130;52.250;5.048;2023-08-31T20:20:01;1011.4;;;16.0;75.3
72226;BME280;60130;52.250;5.048;2023-08-31T20:25:00;1011.4;;;15.8;76.1
72226;BME280;60130;52.250;5.048;2023-08-31T20:30:00;1011.3;;;15.5;78.0
72226;BME280;60130;52.250;5.048;2023-08-31T20:35:00;1011.3;;;15.4;78.5
72226;BME280;60130;52.250;5.048;2023-08-31T20:40:00;1011.4;;;15.4;79.4
72226;BME280;60130;52.250;5.048;2023-08-31T20:45:00;1011.4;;;15.4;79.6
72226;BME280;60130;52.250;5.048;2023-08-31T20:50:00;1011.5;;;15.6;78.8
72226;BME280;60130;52.250;5.048;2023-08-31T20:55:00;1011.5;;;15.7;78.1
72226;BME280;60130;52.250;5.048;2023-08-31T21:00:00;1011.5;;;15.7;77.0
72226;BME280;60130;52.250;5.048;2023-08-31T21:05:00;1011.5;;;15.7;77.8
72226;BME280;60130;52.250;5.048;2023-08-31T21:10:00;1011.5;;;15.7;77.5
72226;BME280;60130;52.250;5.048;2023-08-31T21:15:00;1011.6;;;15.6;77.9
72226;BME280;60130;52.250;5.048;2023-08-31T21:20:00;1011.5;;;15.6;77.9
72226;BME280;60130;52.250;5.048;2023-08-31T21:25:00;1011.5;;;15.6;78.0
72226;BME280;60130;52.250;5.048;2023-08-31T21:30:00;1011.5;;;15.5;78.3
72226;BME280;60130;52.250;5.048;2023-08-31T21:35:00;1011.5;;;15.5;79.0
72226;BME280;60130;52.250;5.048;2023-08-31T21:40:00;1011.5;;;15.5;79.3
72226;BME280;60130;52.250;5.048;2023-08-31T21:45:00;1011.5;;;15.6;78.8
72226;BME280;60130;52.250;5.048;2023-08-31T21:50:00;1011.6;;;15.7;78.5
72226;BME280;60130;52.250;5.048;2023-08-31T21:55:00;1011.5;;;15.7;78.0
72226;BME280;60130;52.250;5.048;2023-08-31T22:00:00;1011.5;;;15.8;78.3
72226;BME280;60130;52.250;5.048;2023-08-31T22:05:00;1011.5;;;15.8;78.3
72226;BME280;60130;52.250;5.048;2023-08-31T22:10:00;1011.6;;;15.8;78.2
72226;BME280;60130;52.250;5.048;2023-08-31T22:15:01;1011.5;;;15.8;78.1
72226;BME280;60130;52.250;5.048;2023-08-31T22:20:00;1011.5;;;15.8;78.0
72226;BME280;60130;52.250;5.048;2023-08-31T22:25:00;1011.6;;;15.8;77.5
72226;BME280;60130;52.250;5.048;2023-08-31T22:30:00;1011.5;;;15.7;78.1
72226;BME280;60130;52.250;5.048;2023-08-31T22:35:00;1011.5;;;15.5;78.9
72226;BME280;60130;52.250;5.048;2023-08-31T22:40:00;1011.4;;;15.3;79.2
72226;BME280;60130;52.250;5.048;2023-08-31T22:45:00;1011.4;;;15.2;80.0
72226;BME280;60130;52.250;5.048;2023-08-31T22:50:00;1011.4;;;15.4;79.8
72226;BME280;60130;52.250;5.048;2023-08-31T22:55:00;1011.3;;;15.4;79.5
72226;BME280;60130;52.250;5.048;2023-08-31T23:00:00;1011.4;;;15.3;80.4
72226;BME280;60130;52.250;5.048;2023-08-31T23:05:00;1011.4;;;15.1;81.1
72226;BME280;60130;52.250;5.048;2023-08-31T23:10:00;1011.4;;;15.1;81.1
72226;BME280;60130;52.250;5.048;2023-08-31T23:15:00;1011.4;;;15.2;80.3
72226;BME280;60130;52.250;5.048;2023-08-31T23:20:00;1011.3;;;15.2;78.8
72226;BME280;60130;52.250;5.048;2023-08-31T23:25:00;1011.2;;;15.1;78.0
72226;BME280;60130;52.250;5.048;2023-08-31T23:30:00;1011.2;;;15.2;78.3
72226;BME280;60130;52.250;5.048;2023-08-31T23:35:00;1011.2;;;15.2;78.9
72226;BME280;60130;52.250;5.048;2023-08-31T23:40:00;1011.0;;;15.1;79.0
72226;BME280;60130;52.250;5.048;2023-08-31T23:45:00;1011.1;;;15.2;78.7
72226;BME280;60130;52.250;5.048;2023-08-31T23:50:00;1011.1;;;15.1;78.8
72226;BME280;60130;52.250;5.048;2023-08-31T23:55:00;1011.1;;;15.1;79.4
